^^
Datos históricos de la estación: Murcia-Puente Tocinos
Diario Informe para Septiembre 11, 2019 Unidades:  Ambas    Ingés   Métrico
Diario Semanal Mensual Anual
  Máxima: Mínima: Promedio:
Temperatura: 93.7 °F /  34.3 °C 76.5 °F /  24.7 °C 84.2 °F /  29 °C
Punto de rocio: 75.2 °F /  24 °C 67.8 °F /  19.9 °C 72.5 °F /  22.5 °C
Humedad: 87% 45.5% 69%
Velocidad viento: 11.8mph /  19km/h - 4.9mph /  7.9km/h
Racha viento: 21mph /  33.8km/h - -
Viento- - Este
Presión: 29.9 in /  1012.9 hPa 29.8 in /  1008.6 hPa -
Precipitación: 0 in /  0.0 mm    
 
 
Tabla de datos para Septiembre 11, 2019
Hora Temperatura Punto de rocio Presión Viento Velocidad viento Racha viento Humedad Intensidad lluvia(por hora) Nubes
00:14 82 °F /  27.8 °C 72.7 °F /  22.6 °C 29.9in /  1012.9hPa ENE 3.6mph /  5.8km/h 10.4mph /  16.7km/h 73% 0in /  0.0mm
00:19 82.2 °F /  27.9 °C 72.7 °F /  22.6 °C 29.9in /  1012.9hPa NE 3.6mph /  5.8km/h 10.4mph /  16.7km/h 72.8% 0in /  0.0mm
00:24 82.2 °F /  27.9 °C 72.7 °F /  22.6 °C 29.9in /  1012.9hPa NE 3.1mph /  5km/h 10mph /  16.1km/h 73% 0in /  0.0mm
00:29 82 °F /  27.8 °C 72.5 °F /  22.5 °C 29.9in /  1012.9hPa NE 3.3mph /  5.3km/h 7mph /  11.3km/h 73% 0in /  0.0mm
00:34 82 °F /  27.8 °C 72.5 °F /  22.5 °C 29.9in /  1012.9hPa NNE 4mph /  6.5km/h 6mph /  9.7km/h 73.2% 0in /  0.0mm
00:39 82 °F /  27.8 °C 72.9 °F /  22.7 °C 29.9in /  1012.7hPa NNE 3.9mph /  6.3km/h 6mph /  9.7km/h 74% 0in /  0.0mm
00:44 81.9 °F /  27.7 °C 73 °F /  22.8 °C 29.9in /  1012.7hPa NNE 3.6mph /  5.8km/h 6mph /  9.7km/h 75% 0in /  0.0mm
00:49 81.7 °F /  27.6 °C 72.9 °F /  22.7 °C 29.9in /  1012.7hPa NNE 3.6mph /  5.8km/h 6mph /  9.7km/h 75% 0in /  0.0mm
00:54 81.3 °F /  27.4 °C 73 °F /  22.8 °C 29.9in /  1012.6hPa NNE 3.6mph /  5.8km/h 6.2mph /  10km/h 75.8% 0in /  0.0mm
00:59 81.1 °F /  27.3 °C 73 °F /  22.8 °C 29.9in /  1012.6hPa NE 3.7mph /  5.9km/h 6mph /  9.7km/h 76.3% 0in /  0.0mm
01:04 81.1 °F /  27.3 °C 73 °F /  22.8 °C 29.9in /  1012.7hPa NNE 4mph /  6.5km/h 6mph /  9.7km/h 76.8% 0in /  0.0mm
01:09 81 °F /  27.2 °C 73.2 °F /  22.9 °C 29.9in /  1012.7hPa NNO 3.8mph /  6.1km/h 6mph /  9.7km/h 77.1% 0in /  0.0mm
01:14 81 °F /  27.2 °C 73.6 °F /  23.1 °C 29.9in /  1012.7hPa NNE 3.1mph /  5km/h 5mph /  8km/h 78% 0in /  0.0mm
01:19 80.8 °F /  27.1 °C 73.4 °F /  23 °C 29.9in /  1012.8hPa NNE 3mph /  4.9km/h 5.4mph /  8.7km/h 78% 0in /  0.0mm
01:24 80.8 °F /  27.1 °C 73.6 °F /  23.1 °C 29.9in /  1012.8hPa NNE 2.9mph /  4.7km/h 6mph /  9.7km/h 78.9% 0in /  0.0mm
01:29 80.4 °F /  26.9 °C 73.6 °F /  23.1 °C 29.9in /  1012.8hPa North 3mph /  4.9km/h 6mph /  9.7km/h 79.5% 0in /  0.0mm
01:34 80.4 °F /  26.9 °C 73.8 °F /  23.2 °C 29.9in /  1012.8hPa NE 3.6mph /  5.8km/h 5mph /  8km/h 80% 0in /  0.0mm
01:39 80.4 °F /  26.9 °C 73.6 °F /  23.1 °C 29.9in /  1012.8hPa NE 3.4mph /  5.5km/h 5mph /  8km/h 79.9% 0in /  0.0mm
01:44 80.4 °F /  26.9 °C 73.8 °F /  23.2 °C 29.9in /  1012.8hPa NNE 2.9mph /  4.7km/h 5.2mph /  8.4km/h 79.9% 0in /  0.0mm
01:49 80.4 °F /  26.9 °C 73.8 °F /  23.2 °C 29.9in /  1012.8hPa NE 2.9mph /  4.7km/h 5mph /  8km/h 80% 0in /  0.0mm
01:54 80.2 °F /  26.8 °C 73.6 °F /  23.1 °C 29.9in /  1012.7hPa NNE 2.9mph /  4.7km/h 5.2mph /  8.4km/h 80% 0in /  0.0mm
01:59 80.2 °F /  26.8 °C 73.6 °F /  23.1 °C 29.9in /  1012.7hPa NNE 2.9mph /  4.7km/h 5mph /  8km/h 80.2% 0in /  0.0mm
02:04 80.1 °F /  26.7 °C 73.8 °F /  23.2 °C 29.9in /  1012.7hPa NE 3.1mph /  5km/h 5.2mph /  8.4km/h 81% 0in /  0.0mm
02:09 79.9 °F /  26.6 °C 73.8 °F /  23.2 °C 29.9in /  1012.7hPa NE 3.1mph /  5km/h 6.2mph /  10km/h 81.3% 0in /  0.0mm
02:14 79.9 °F /  26.6 °C 73.9 °F /  23.3 °C 29.9in /  1012.7hPa NE 3.1mph /  5km/h 6mph /  9.7km/h 82% 0in /  0.0mm
02:19 79.7 °F /  26.5 °C 73.8 °F /  23.2 °C 29.9in /  1012.7hPa NE 3.2mph /  5.2km/h 6.2mph /  10km/h 82% 0in /  0.0mm
02:24 79.7 °F /  26.5 °C 73.8 °F /  23.2 °C 29.9in /  1012.5hPa NNE 3.6mph /  5.8km/h 6mph /  9.7km/h 82% 0in /  0.0mm
02:29 79.7 °F /  26.5 °C 73.8 °F /  23.2 °C 29.9in /  1012.5hPa NNE 3.5mph /  5.6km/h 5.2mph /  8.4km/h 82% 0in /  0.0mm
02:34 79.5 °F /  26.4 °C 73.4 °F /  23 °C 29.9in /  1012.5hPa NNE 3.1mph /  5km/h 5.9mph /  9.5km/h 81.5% 0in /  0.0mm
02:39 79.3 °F /  26.3 °C 73 °F /  22.8 °C 29.9in /  1012.4hPa NNE 3.1mph /  5km/h 6.2mph /  10km/h 81% 0in /  0.0mm
02:44 79.3 °F /  26.3 °C 73 °F /  22.8 °C 29.9in /  1012.4hPa NNE 3.1mph /  5km/h 6mph /  9.7km/h 81% 0in /  0.0mm
02:49 79.2 °F /  26.2 °C 73 °F /  22.8 °C 29.9in /  1012.4hPa NNE 3.2mph /  5.2km/h 6.2mph /  10km/h 81.5% 0in /  0.0mm
02:54 79.2 °F /  26.2 °C 73.2 °F /  22.9 °C 29.9in /  1012.2hPa NE 3.6mph /  5.8km/h 6mph /  9.7km/h 82% 0in /  0.0mm
02:59 79.2 °F /  26.2 °C 73.2 °F /  22.9 °C 29.9in /  1012.2hPa NNE 3.6mph /  5.8km/h 6.2mph /  10km/h 82% 0in /  0.0mm
03:04 79 °F /  26.1 °C 72.7 °F /  22.6 °C 29.9in /  1012.2hPa NNE 3.6mph /  5.8km/h 6mph /  9.7km/h 81.1% 0in /  0.0mm
03:09 78.8 °F /  26 °C 72.7 °F /  22.6 °C 29.9in /  1011.9hPa NE 3.6mph /  5.8km/h 6.2mph /  10km/h 81.4% 0in /  0.0mm
03:14 78.6 °F /  25.9 °C 72.3 °F /  22.4 °C 29.9in /  1011.9hPa NNE 3.6mph /  5.8km/h 6mph /  9.7km/h 81.1% 0in /  0.0mm
03:19 78.4 °F /  25.8 °C 72 °F /  22.2 °C 29.9in /  1011.9hPa NNE 3.5mph /  5.6km/h 6.2mph /  10km/h 80.1% 0in /  0.0mm
03:24 78.4 °F /  25.8 °C 71.8 °F /  22.1 °C 29.9in /  1011.6hPa NE 3.1mph /  5km/h 6mph /  9.7km/h 80% 0in /  0.0mm
03:29 78.4 °F /  25.8 °C 71.8 °F /  22.1 °C 29.9in /  1011.6hPa NE 3.1mph /  5km/h 5.8mph /  9.3km/h 80% 0in /  0.0mm
03:34 78.6 °F /  25.9 °C 72.3 °F /  22.4 °C 29.9in /  1011.6hPa NE 3.1mph /  5km/h 6mph /  9.7km/h 81% 0in /  0.0mm
03:39 78.6 °F /  25.9 °C 72.7 °F /  22.6 °C 29.9in /  1011.5hPa NE 3mph /  4.9km/h 5mph /  8km/h 81.9% 0in /  0.0mm
03:44 78.6 °F /  25.9 °C 72.7 °F /  22.6 °C 29.9in /  1011.5hPa NE 2.9mph /  4.7km/h 5.2mph /  8.4km/h 82% 0in /  0.0mm
03:49 78.6 °F /  25.9 °C 72.7 °F /  22.6 °C 29.9in /  1011.5hPa NE 2.8mph /  4.5km/h 5mph /  8km/h 82% 0in /  0.0mm
03:54 78.6 °F /  25.9 °C 72.7 °F /  22.6 °C 29.9in /  1011.4hPa NNE 2.4mph /  3.9km/h 5mph /  8km/h 82% 0in /  0.0mm
03:59 78.6 °F /  25.9 °C 72.3 °F /  22.4 °C 29.9in /  1011.4hPa NNO 2.3mph /  3.7km/h 5mph /  8km/h 81.2% 0in /  0.0mm
04:04 78.4 °F /  25.8 °C 72.1 °F /  22.3 °C 29.9in /  1011.4hPa NNE 2mph /  3.2km/h 5mph /  8km/h 81% 0in /  0.0mm
04:09 78.4 °F /  25.8 °C 72.5 °F /  22.5 °C 29.9in /  1011.4hPa NE 1.9mph /  3km/h 3.6mph /  5.8km/h 82% 0in /  0.0mm
04:14 78.4 °F /  25.8 °C 72.5 °F /  22.5 °C 29.9in /  1011.4hPa NNO 1.4mph /  2.2km/h 4mph /  6.4km/h 82% 0in /  0.0mm
04:19 78.6 °F /  25.9 °C 72.7 °F /  22.6 °C 29.9in /  1011.4hPa North 1.4mph /  2.2km/h 3mph /  4.8km/h 82% 0in /  0.0mm
04:24 78.6 °F /  25.9 °C 72.7 °F /  22.6 °C 29.9in /  1011.1hPa NNO 1.4mph /  2.2km/h 3.5mph /  5.6km/h 82% 0in /  0.0mm
04:29 78.4 °F /  25.8 °C 72.5 °F /  22.5 °C 29.9in /  1011.1hPa NNO 1.4mph /  2.2km/h 3mph /  4.8km/h 82% 0in /  0.0mm
04:34 78.4 °F /  25.8 °C 72.5 °F /  22.5 °C 29.9in /  1011.1hPa North 1.4mph /  2.2km/h 3.5mph /  5.6km/h 82% 0in /  0.0mm
04:39 78.4 °F /  25.8 °C 72.7 °F /  22.6 °C 29.9in /  1010.9hPa NE 1.5mph /  2.4km/h 3.6mph /  5.8km/h 82.9% 0in /  0.0mm
04:44 78.4 °F /  25.8 °C 72.9 °F /  22.7 °C 29.9in /  1010.9hPa Este 1.8mph /  2.9km/h 4mph /  6.4km/h 83% 0in /  0.0mm
04:49 78.4 °F /  25.8 °C 72.9 °F /  22.7 °C 29.9in /  1011.0hPa ESE 1.8mph /  2.9km/h 4.6mph /  7.4km/h 83% 0in /  0.0mm
04:54 78.4 °F /  25.8 °C 72.9 °F /  22.7 °C 29.9in /  1011.0hPa Este 1.8mph /  2.9km/h 5mph /  8km/h 83% 0in /  0.0mm
04:59 78.4 °F /  25.8 °C 72.9 °F /  22.7 °C 29.9in /  1011.0hPa ESE 2.1mph /  3.4km/h 5mph /  8km/h 83% 0in /  0.0mm
05:04 78.3 °F /  25.7 °C 72.7 °F /  22.6 °C 29.9in /  1011.1hPa ESE 2.9mph /  4.7km/h 5mph /  8km/h 83% 0in /  0.0mm
05:09 78.3 °F /  25.7 °C 72.3 °F /  22.4 °C 29.9in /  1011.1hPa ESE 2.7mph /  4.3km/h 4mph /  6.4km/h 82.3% 0in /  0.0mm
05:14 78.1 °F /  25.6 °C 71.6 °F /  22 °C 29.9in /  1011.1hPa Este 2mph /  3.2km/h 4mph /  6.4km/h 80.7% 0in /  0.0mm
05:19 78.1 °F /  25.6 °C 72 °F /  22.2 °C 29.9in /  1011.1hPa Este 1.5mph /  2.4km/h 3mph /  4.8km/h 81.5% 0in /  0.0mm
05:24 78.1 °F /  25.6 °C 72.5 °F /  22.5 °C 29.9in /  1010.9hPa Calm     82.7% 0in /  0.0mm
05:29 78.3 °F /  25.7 °C 72.7 °F /  22.6 °C 29.9in /  1010.9hPa SE 0.4mph /  0.7km/h 5.9mph /  9.5km/h 82.8% 0in /  0.0mm
05:34 78.4 °F /  25.8 °C 72.3 °F /  22.4 °C 29.9in /  1011.1hPa ESE 1.8mph /  2.9km/h 6mph /  9.7km/h 81.6% 0in /  0.0mm
05:39 78.4 °F /  25.8 °C 72 °F /  22.2 °C 29.9in /  1011.1hPa ENE 1.9mph /  3km/h 5mph /  8km/h 80.7% 0in /  0.0mm
05:44 78.3 °F /  25.7 °C 71.1 °F /  21.7 °C 29.9in /  1011.1hPa NE 2mph /  3.2km/h 2mph /  3.2km/h 78.5% 0in /  0.0mm
05:49 78.1 °F /  25.6 °C 70.7 °F /  21.5 °C 29.9in /  1011.1hPa NE 1.6mph /  2.5km/h 2.9mph /  4.7km/h 78% 0in /  0.0mm
05:54 78.1 °F /  25.6 °C 70.7 °F /  21.5 °C 29.9in /  1011.1hPa Calm   3.6mph /  5.8km/h 78% 0in /  0.0mm
05:59 78.1 °F /  25.6 °C 70.7 °F /  21.5 °C 29.9in /  1011.1hPa NNO 0.6mph /  0.9km/h 4.6mph /  7.4km/h 78% 0in /  0.0mm
06:04 78.1 °F /  25.6 °C 71.1 °F /  21.7 °C 29.9in /  1011.1hPa NO 2mph /  3.2km/h 5mph /  8km/h 79.1% 0in /  0.0mm
06:09 78.1 °F /  25.6 °C 71.8 °F /  22.1 °C 29.9in /  1011.1hPa NNO 2.1mph /  3.4km/h 5.2mph /  8.4km/h 81% 0in /  0.0mm
06:14 78.1 °F /  25.6 °C 72.5 °F /  22.5 °C 29.9in /  1011.1hPa NNE 2.4mph /  3.9km/h 6.2mph /  10km/h 82.8% 0in /  0.0mm
06:19 78.1 °F /  25.6 °C 73 °F /  22.8 °C 29.9in /  1011.1hPa NNE 2.9mph /  4.6km/h 11.2mph /  18km/h 84.5% 0in /  0.0mm
06:24 77.5 °F /  25.3 °C 73 °F /  22.8 °C 29.8in /  1010.7hPa ENE 4.3mph /  6.9km/h 12mph /  19.3km/h 85.9% 0in /  0.0mm
06:29 77.4 °F /  25.2 °C 73.2 °F /  22.9 °C 29.8in /  1010.7hPa NNE 4.4mph /  7.1km/h 12mph /  19.3km/h 87% 0in /  0.0mm
06:34 77.4 °F /  25.2 °C 73 °F /  22.8 °C 29.9in /  1011.3hPa Este 4.7mph /  7.6km/h 7mph /  11.3km/h 86.8% 0in /  0.0mm
06:39 77 °F /  25 °C 72.5 °F /  22.5 °C 29.9in /  1011.3hPa ENE 4.5mph /  7.2km/h 8.1mph /  13km/h 85.9% 0in /  0.0mm
06:44 76.6 °F /  24.8 °C 71.8 °F /  22.1 °C 29.9in /  1011.3hPa ENE 3.6mph /  5.8km/h 8mph /  12.9km/h 85% 0in /  0.0mm
06:49 76.6 °F /  24.8 °C 71.8 °F /  22.1 °C 29.9in /  1011.4hPa Este 3.5mph /  5.6km/h 6mph /  9.7km/h 85% 0in /  0.0mm
06:54 76.5 °F /  24.7 °C 71.4 °F /  21.9 °C 29.9in /  1011.4hPa ESE 3.1mph /  5km/h 5mph /  8km/h 84% 0in /  0.0mm
06:59 76.5 °F /  24.7 °C 71.6 °F /  22 °C 29.9in /  1011.4hPa Este 2.8mph /  4.5km/h 5mph /  8km/h 84.8% 0in /  0.0mm
07:04 76.6 °F /  24.8 °C 71.8 °F /  22.1 °C 29.9in /  1011.5hPa ENE 2mph /  3.2km/h 3mph /  4.8km/h 85% 0in /  0.0mm
07:09 76.6 °F /  24.8 °C 72 °F /  22.2 °C 29.9in /  1011.5hPa NNE 1.6mph /  2.5km/h 3mph /  4.8km/h 85% 0in /  0.0mm
07:14 76.8 °F /  24.9 °C 72 °F /  22.2 °C 29.9in /  1011.5hPa Calm   2.9mph /  4.7km/h 85% 0in /  0.0mm
07:19 77 °F /  25 °C 72.1 °F /  22.3 °C 29.9in /  1011.9hPa NO 0.3mph /  0.5km/h 4.6mph /  7.4km/h 85% 0in /  0.0mm
07:24 77.2 °F /  25.1 °C 72.1 °F /  22.3 °C 29.9in /  1011.9hPa NO 1.4mph /  2.2km/h 5mph /  8km/h 84.3% 0in /  0.0mm
07:29 77.2 °F /  25.1 °C 72.3 °F /  22.4 °C 29.9in /  1011.9hPa NO 1.4mph /  2.2km/h 3.6mph /  5.8km/h 84.8% 0in /  0.0mm
07:34 77.4 °F /  25.2 °C 72.5 °F /  22.5 °C 29.9in /  1012.0hPa NO 1.4mph /  2.2km/h 4mph /  6.4km/h 85% 0in /  0.0mm
07:39 77.5 °F /  25.3 °C 72.7 °F /  22.6 °C 29.9in /  1012.0hPa NE 1.4mph /  2.2km/h 4.7mph /  7.6km/h 85% 0in /  0.0mm
07:44 77.5 °F /  25.3 °C 72.7 °F /  22.6 °C 29.9in /  1012.0hPa North 1.4mph /  2.2km/h 5mph /  8km/h 85% 0in /  0.0mm
07:49 77.5 °F /  25.3 °C 72.5 °F /  22.5 °C 29.9in /  1012.1hPa NNO 1.6mph /  2.5km/h 4.7mph /  7.6km/h 84.3% 0in /  0.0mm
07:54 77.5 °F /  25.3 °C 72.3 °F /  22.4 °C 29.9in /  1012.1hPa NNO 2mph /  3.2km/h 5mph /  8km/h 84% 0in /  0.0mm
07:59 77.5 °F /  25.3 °C 72.3 °F /  22.4 °C 29.9in /  1012.1hPa NNO 1.9mph /  3.1km/h 5mph /  8km/h 84% 0in /  0.0mm
08:04 77.5 °F /  25.3 °C 72.5 °F /  22.5 °C 29.9in /  1012.1hPa NNO 1.8mph /  2.9km/h 2.3mph /  3.7km/h 84.4% 0in /  0.0mm
08:09 77.7 °F /  25.4 °C 72.9 °F /  22.7 °C 29.9in /  1012.0hPa NNO 1.4mph /  2.2km/h 2.3mph /  3.7km/h 85% 0in /  0.0mm
08:14 77.7 °F /  25.4 °C 72.9 °F /  22.7 °C 29.9in /  1012.0hPa Calm   2.9mph /  4.7km/h 85% 0in /  0.0mm
08:19 77.9 °F /  25.5 °C 73 °F /  22.8 °C 29.9in /  1012.1hPa Calm   3mph /  4.8km/h 85% 0in /  0.0mm
08:24 78.1 °F /  25.6 °C 73.2 °F /  22.9 °C 29.9in /  1012.1hPa Calm   4.6mph /  7.4km/h 85.2% 0in /  0.0mm
08:29 78.1 °F /  25.6 °C 72.9 °F /  22.7 °C 29.9in /  1012.1hPa ESE 0.6mph /  0.9km/h 5.8mph /  9.3km/h 84.3% 0in /  0.0mm
08:34 78.1 °F /  25.6 °C 72.7 °F /  22.6 °C 29.9in /  1012.3hPa SE 2.4mph /  3.9km/h 6mph /  9.7km/h 83.7% 0in /  0.0mm
08:39 77.7 °F /  25.4 °C 72.3 °F /  22.4 °C 29.9in /  1012.3hPa SE 2.5mph /  4km/h 6mph /  9.7km/h 83.3% 0in /  0.0mm
08:44 77.7 °F /  25.4 °C 72.7 °F /  22.6 °C 29.9in /  1012.3hPa ESE 2.9mph /  4.7km/h 6.2mph /  10km/h 84% 0in /  0.0mm
08:49 77.9 °F /  25.5 °C 72.3 °F /  22.4 °C 29.9in /  1012.3hPa SE 3mph /  4.9km/h 6.2mph /  10km/h 83.1% 0in /  0.0mm
08:54 78.3 °F /  25.7 °C 72.9 °F /  22.7 °C 29.9in /  1012.2hPa SSE 3.6mph /  5.8km/h 6mph /  9.7km/h 83.7% 0in /  0.0mm
08:59 78.4 °F /  25.8 °C 72.9 °F /  22.7 °C 29.9in /  1012.2hPa SE 3.2mph /  5.1km/h 4mph /  6.4km/h 83.3% 0in /  0.0mm
09:04 78.8 °F /  26 °C 73.6 °F /  23.1 °C 29.9in /  1012.5hPa SSO 2mph /  3.2km/h 4.6mph /  7.4km/h 84% 0in /  0.0mm
09:09 79 °F /  26.1 °C 73.8 °F /  23.2 °C 29.9in /  1012.5hPa SSO 2mph /  3.2km/h 5mph /  8km/h 84% 0in /  0.0mm
09:14 79.2 °F /  26.2 °C 73.8 °F /  23.2 °C 29.9in /  1012.5hPa ESE 2mph /  3.2km/h 5.9mph /  9.5km/h 83.8% 0in /  0.0mm
09:19 79.3 °F /  26.3 °C 73.8 °F /  23.2 °C 29.9in /  1012.6hPa Este 2.2mph /  3.6km/h 6mph /  9.7km/h 83.5% 0in /  0.0mm
09:24 79.3 °F /  26.3 °C 74.1 °F /  23.4 °C 29.9in /  1012.6hPa ENE 2.9mph /  4.7km/h 5mph /  8km/h 84% 0in /  0.0mm
09:29 79.5 °F /  26.4 °C 74.3 °F /  23.5 °C 29.9in /  1012.6hPa NNE 2.7mph /  4.3km/h 5mph /  8km/h 84% 0in /  0.0mm
09:34 79.9 °F /  26.6 °C 74.3 °F /  23.5 °C 29.9in /  1012.6hPa North 2mph /  3.2km/h 3.5mph /  5.6km/h 83.1% 0in /  0.0mm
09:39 80.2 °F /  26.8 °C 74.5 °F /  23.6 °C 29.9in /  1012.2hPa NNO 1.9mph /  3.1km/h 4.7mph /  7.6km/h 83% 0in /  0.0mm
09:44 80.2 °F /  26.8 °C 74.7 °F /  23.7 °C 29.9in /  1012.2hPa NNO 1.8mph /  2.9km/h 5mph /  8km/h 83% 0in /  0.0mm
09:49 80.4 °F /  26.9 °C 74.8 °F /  23.8 °C 29.9in /  1012.2hPa NNE 1.9mph /  3.1km/h 5.8mph /  9.3km/h 83% 0in /  0.0mm
09:54 81 °F /  27.2 °C 75 °F /  23.9 °C 29.9in /  1012.1hPa NE 2.4mph /  3.9km/h 6mph /  9.7km/h 82.4% 0in /  0.0mm
09:59 81.1 °F /  27.3 °C 74.8 °F /  23.8 °C 29.9in /  1012.1hPa ONO 2.3mph /  3.7km/h 5mph /  8km/h 81.2% 0in /  0.0mm
10:04 81.5 °F /  27.5 °C 75 °F /  23.9 °C 29.9in /  1012.1hPa OSO 2mph /  3.2km/h 5mph /  8km/h 80.6% 0in /  0.0mm
10:09 81.9 °F /  27.7 °C 75 °F /  23.9 °C 29.9in /  1012.1hPa SE 2mph /  3.2km/h 5mph /  8km/h 79.8% 0in /  0.0mm
10:14 82.2 °F /  27.9 °C 74.8 °F /  23.8 °C 29.9in /  1012.1hPa NNO 2mph /  3.2km/h 5.8mph /  9.3km/h 78.6% 0in /  0.0mm
10:19 82.6 °F /  28.1 °C 75.2 °F /  24 °C 29.9in /  1012.1hPa SSE 2.1mph /  3.4km/h 6mph /  9.7km/h 78.7% 0in /  0.0mm
10:24 82.9 °F /  28.3 °C 75.2 °F /  24 °C 29.9in /  1012.0hPa Este 2.4mph /  3.9km/h 5mph /  8km/h 77.8% 0in /  0.0mm
10:29 83.3 °F /  28.5 °C 75 °F /  23.9 °C 29.9in /  1012.0hPa NE 2.5mph /  4.1km/h 5.9mph /  9.5km/h 76.5% 0in /  0.0mm
10:34 83.1 °F /  28.4 °C 74.8 °F /  23.8 °C 29.9in /  1012.0hPa North 2.9mph /  4.7km/h 6mph /  9.7km/h 75.9% 0in /  0.0mm
10:39 83.3 °F /  28.5 °C 75 °F /  23.9 °C 29.9in /  1011.9hPa NE 2.7mph /  4.3km/h 6.2mph /  10km/h 75.9% 0in /  0.0mm
10:44 83.7 °F /  28.7 °C 74.7 °F /  23.7 °C 29.9in /  1011.9hPa NNE 2mph /  3.2km/h 6mph /  9.7km/h 74.6% 0in /  0.0mm
10:49 83.8 °F /  28.8 °C 74.7 °F /  23.7 °C 29.9in /  1012.1hPa NNE 2.1mph /  3.4km/h 6mph /  9.7km/h 74% 0in /  0.0mm
10:54 84.2 °F /  29 °C 74.8 °F /  23.8 °C 29.9in /  1012.1hPa ENE 2.4mph /  3.9km/h 5.9mph /  9.5km/h 74% 0in /  0.0mm
10:59 84.4 °F /  29.1 °C 74.8 °F /  23.8 °C 29.9in /  1012.1hPa ESE 2.6mph /  4.2km/h 8.5mph /  13.7km/h 73.4% 0in /  0.0mm
11:04 84 °F /  28.9 °C 74.5 °F /  23.6 °C 29.9in /  1012.1hPa SE 3.1mph /  5km/h 9mph /  14.5km/h 73.3% 0in /  0.0mm
11:09 84 °F /  28.9 °C 74.7 °F /  23.7 °C 29.9in /  1012.1hPa Este 3.3mph /  5.3km/h 8.1mph /  13km/h 73.5% 0in /  0.0mm
11:14 84.2 °F /  29 °C 74.3 °F /  23.5 °C 29.9in /  1012.1hPa Este 4mph /  6.5km/h 9.2mph /  14.8km/h 72.4% 0in /  0.0mm
11:19 84.2 °F /  29 °C 74.5 °F /  23.6 °C 29.9in /  1012.2hPa ENE 4.2mph /  6.7km/h 9mph /  14.5km/h 72.6% 0in /  0.0mm
11:24 84.4 °F /  29.1 °C 74.8 °F /  23.8 °C 29.9in /  1012.2hPa Este 4.7mph /  7.6km/h 8.1mph /  13km/h 73% 0in /  0.0mm
11:29 84.7 °F /  29.3 °C 74.8 °F /  23.8 °C 29.9in /  1012.2hPa ENE 4.5mph /  7.2km/h 8mph /  12.9km/h 72.2% 0in /  0.0mm
11:34 84.9 °F /  29.4 °C 74.5 °F /  23.6 °C 29.9in /  1012.2hPa ENE 3.6mph /  5.8km/h 7mph /  11.3km/h 70.9% 0in /  0.0mm
11:39 85.1 °F /  29.5 °C 74.7 °F /  23.7 °C 29.9in /  1012.2hPa ENE 3.5mph /  5.6km/h 7mph /  11.3km/h 71% 0in /  0.0mm
11:44 85.6 °F /  29.8 °C 74.7 °F /  23.7 °C 29.9in /  1012.2hPa NE 3.1mph /  5km/h 6.9mph /  11.1km/h 69.8% 0in /  0.0mm
11:49 85.5 °F /  29.7 °C 74.3 °F /  23.5 °C 29.9in /  1012.3hPa Este 3.4mph /  5.5km/h 7mph /  11.3km/h 69.3% 0in /  0.0mm
11:54 85.5 °F /  29.7 °C 74.1 °F /  23.4 °C 29.9in /  1012.3hPa Este 4.3mph /  6.9km/h 9.2mph /  14.8km/h 68.9% 0in /  0.0mm
11:59 85.5 °F /  29.7 °C 73.8 °F /  23.2 °C 29.9in /  1012.3hPa ESE 4.2mph /  6.8km/h 9mph /  14.5km/h 68% 0in /  0.0mm
12:04 85.6 °F /  29.8 °C 73.9 °F /  23.3 °C 29.9in /  1012.3hPa NO 4mph /  6.5km/h 8.5mph /  13.7km/h 67.7% 0in /  0.0mm
12:09 86.4 °F /  30.2 °C 73.9 °F /  23.3 °C 29.9in /  1012.2hPa NNE 3.8mph /  6.1km/h 9mph /  14.5km/h 66.6% 0in /  0.0mm
12:14 86.5 °F /  30.3 °C 73.2 °F /  22.9 °C 29.9in /  1012.2hPa North 3.1mph /  5km/h 9mph /  14.5km/h 64.7% 0in /  0.0mm
12:19 86.9 °F /  30.5 °C 73.2 °F /  22.9 °C 29.9in /  1012.2hPa NNO 3.2mph /  5.2km/h 6.2mph /  10km/h 63.9% 0in /  0.0mm
12:24 87.1 °F /  30.6 °C 72.5 °F /  22.5 °C 29.9in /  1012.1hPa NO 3.6mph /  5.8km/h 6mph /  9.7km/h 61.9% 0in /  0.0mm
12:29 87.4 °F /  30.8 °C 72.3 °F /  22.4 °C 29.9in /  1012.1hPa NNO 3.5mph /  5.6km/h 8.1mph /  13km/h 61.2% 0in /  0.0mm
12:34 87.8 °F /  31 °C 72.1 °F /  22.3 °C 29.9in /  1012.1hPa ENE 3.1mph /  5km/h 8mph /  12.9km/h 60.1% 0in /  0.0mm
12:39 87.6 °F /  30.9 °C 72.1 °F /  22.3 °C 29.9in /  1011.9hPa SO 3.1mph /  5km/h 6mph /  9.7km/h 60% 0in /  0.0mm
12:44 87.8 °F /  31 °C 71.6 °F /  22 °C 29.9in /  1011.9hPa NNE 3.1mph /  5km/h 6.9mph /  11.1km/h 58.7% 0in /  0.0mm
12:49 88.2 °F /  31.2 °C 71.6 °F /  22 °C 29.9in /  1011.9hPa NNO 3.2mph /  5.2km/h 7.4mph /  11.9km/h 58% 0in /  0.0mm
12:54 88.5 °F /  31.4 °C 71.2 °F /  21.8 °C 29.9in /  1011.8hPa NE 3.6mph /  5.8km/h 8.1mph /  13km/h 56.7% 0in /  0.0mm
12:59 88.7 °F /  31.5 °C 71.6 °F /  22 °C 29.9in /  1011.8hPa NNE 3.8mph /  6.1km/h 8mph /  12.9km/h 57% 0in /  0.0mm
13:04 89.1 °F /  31.7 °C 71.1 °F /  21.7 °C 29.9in /  1011.8hPa NE 4.3mph /  6.9km/h 7mph /  11.3km/h 55.7% 0in /  0.0mm
13:09 89.2 °F /  31.8 °C 70.9 °F /  21.6 °C 29.9in /  1011.7hPa ONO 4.1mph /  6.6km/h 6mph /  9.7km/h 54.6% 0in /  0.0mm
13:14 89.6 °F /  32 °C 70.2 °F /  21.2 °C 29.9in /  1011.7hPa ENE 2.9mph /  4.6km/h 9.2mph /  14.8km/h 53.1% 0in /  0.0mm
13:19 90 °F /  32.2 °C 69.8 °F /  21 °C 29.9in /  1011.7hPa ENE 3mph /  4.9km/h 9mph /  14.5km/h 51.8% 0in /  0.0mm
13:24 90.1 °F /  32.3 °C 68.4 °F /  20.2 °C 29.9in /  1011.4hPa SE 3.6mph /  5.8km/h 6mph /  9.7km/h 49.1% 0in /  0.0mm
13:29 90.7 °F /  32.6 °C 70.7 °F /  21.5 °C 29.9in /  1011.4hPa NNO 3.4mph /  5.5km/h 6.2mph /  10km/h 52% 0in /  0.0mm
13:34 91 °F /  32.8 °C 69.4 °F /  20.8 °C 29.9in /  1011.4hPa NE 2.9mph /  4.7km/h 8.7mph /  14km/h 49.4% 0in /  0.0mm
13:39 91.2 °F /  32.9 °C 67.8 °F /  19.9 °C 29.9in /  1011.2hPa NNE 3.3mph /  5.3km/h 9.2mph /  14.8km/h 46.5% 0in /  0.0mm
13:44 91.2 °F /  32.9 °C 68.2 °F /  20.1 °C 29.9in /  1011.2hPa NNE 4.7mph /  7.6km/h 9mph /  14.5km/h 47% 0in /  0.0mm
13:49 91.4 °F /  33 °C 69.1 °F /  20.6 °C 29.9in /  1011.2hPa NE 4.8mph /  7.8km/h 11.5mph /  18.5km/h 48.1% 0in /  0.0mm
13:54 91.4 °F /  33 °C 68.9 °F /  20.5 °C 29.9in /  1011.0hPa ENE 5.2mph /  8.4km/h 12.7mph /  20.4km/h 48% 0in /  0.0mm
13:59 91.6 °F /  33.1 °C 69.4 °F /  20.8 °C 29.9in /  1011.0hPa NNE 5mph /  8km/h 13mph /  20.9km/h 48.6% 0in /  0.0mm
14:04 91.9 °F /  33.3 °C 70 °F /  21.1 °C 29.9in /  1011.0hPa NNO 4.3mph /  6.9km/h 10.2mph /  16.4km/h 49% 0in /  0.0mm
14:09 92.5 °F /  33.6 °C 70 °F /  21.1 °C 29.8in /  1010.7hPa NNE 4.6mph /  7.4km/h 10mph /  16.1km/h 48.2% 0in /  0.0mm
14:14 92.7 °F /  33.7 °C 68.5 °F /  20.3 °C 29.8in /  1010.7hPa ENE 5.4mph /  8.7km/h 9mph /  14.5km/h 45.5% 0in /  0.0mm
14:19 92.8 °F /  33.8 °C 69.1 °F /  20.6 °C 29.8in /  1010.7hPa NE 5.4mph /  8.7km/h 11.5mph /  18.5km/h 46% 0in /  0.0mm
14:24 93.2 °F /  34 °C 69.4 °F /  20.8 °C 29.8in /  1010.6hPa NNE 5.4mph /  8.7km/h 12mph /  19.3km/h 46.1% 0in /  0.0mm
14:29 93.4 °F /  34.1 °C 70.2 °F /  21.2 °C 29.8in /  1010.6hPa NE 5.2mph /  8.4km/h 10.4mph /  16.7km/h 47% 0in /  0.0mm
14:34 93.6 °F /  34.2 °C 70.7 °F /  21.5 °C 29.8in /  1010.6hPa NE 4.7mph /  7.6km/h 12.7mph /  20.4km/h 47.7% 0in /  0.0mm
14:39 93.7 °F /  34.3 °C 70.5 °F /  21.4 °C 29.8in /  1010.5hPa ENE 5.1mph /  8.2km/h 13mph /  20.9km/h 47.2% 0in /  0.0mm
14:44 93.6 °F /  34.2 °C 71.2 °F /  21.8 °C 29.8in /  1010.5hPa NE 6.2mph /  10km/h 17.5mph /  28.2km/h 48.6% 0in /  0.0mm
14:49 93.6 °F /  34.2 °C 72.3 °F /  22.4 °C 29.8in /  1010.5hPa NE 6.6mph /  10.7km/h 17mph /  27.4km/h 50.3% 0in /  0.0mm
14:54 93.6 °F /  34.2 °C 73.2 °F /  22.9 °C 29.8in /  1010.3hPa ENE 8.1mph /  13km/h 15mph /  24.1km/h 51.9% 0in /  0.0mm
14:59 93 °F /  33.9 °C 73.4 °F /  23 °C 29.8in /  1010.3hPa ENE 8.1mph /  13km/h 14mph /  22.5km/h 53% 0in /  0.0mm
15:04 92.8 °F /  33.8 °C 72.9 °F /  22.7 °C 29.8in /  1010.3hPa NE 8.1mph /  13km/h 13mph /  20.9km/h 52.5% 0in /  0.0mm
15:09 92.8 °F /  33.8 °C 73.2 °F /  22.9 °C 29.8in /  1010.1hPa NE 8mph /  12.9km/h 16.1mph /  25.9km/h 53.1% 0in /  0.0mm
15:14 92.5 °F /  33.6 °C 73.4 °F /  23 °C 29.8in /  1010.1hPa NE 7.6mph /  12.2km/h 16.1mph /  25.9km/h 53.9% 0in /  0.0mm
15:19 92.3 °F /  33.5 °C 73.2 °F /  22.9 °C 29.8in /  1010.1hPa NE 8.1mph /  13km/h 17.5mph /  28.2km/h 54% 0in /  0.0mm
15:24 92.1 °F /  33.4 °C 73.2 °F /  22.9 °C 29.8in /  1010.0hPa NE 9.7mph /  15.6km/h 17mph /  27.4km/h 54.1% 0in /  0.0mm
15:29 92.3 °F /  33.5 °C 73.2 °F /  22.9 °C 29.8in /  1010.0hPa NE 9.2mph /  14.8km/h 13mph /  20.9km/h 54% 0in /  0.0mm
15:34 92.8 °F /  33.8 °C 73.4 °F /  23 °C 29.8in /  1010.0hPa NE 7.6mph /  12.2km/h 13.8mph /  22.2km/h 53.4% 0in /  0.0mm
15:39 92.8 °F /  33.8 °C 73.6 °F /  23.1 °C 29.8in /  1009.9hPa NE 7.6mph /  12.2km/h 14mph /  22.5km/h 53.6% 0in /  0.0mm
15:44 92.8 °F /  33.8 °C 73.6 °F /  23.1 °C 29.8in /  1009.9hPa ENE 7.4mph /  11.9km/h 17.5mph /  28.2km/h 53.7% 0in /  0.0mm
15:49 93.2 °F /  34 °C 73.9 °F /  23.3 °C 29.8in /  1009.9hPa Este 7.6mph /  12.2km/h 17mph /  27.4km/h 53.7% 0in /  0.0mm
15:54 93.2 °F /  34 °C 73.6 °F /  23.1 °C 29.8in /  1009.8hPa ESE 8.1mph /  13km/h 14mph /  22.5km/h 53.1% 0in /  0.0mm
15:59 93 °F /  33.9 °C 73.8 °F /  23.2 °C 29.8in /  1009.8hPa SE 7.9mph /  12.7km/h 14mph /  22.5km/h 53.6% 0in /  0.0mm
16:04 92.8 °F /  33.8 °C 73.6 °F /  23.1 °C 29.8in /  1009.8hPa ESE 7.4mph /  11.9km/h 13mph /  20.9km/h 53.7% 0in /  0.0mm
16:09 92.7 °F /  33.7 °C 73.4 °F /  23 °C 29.8in /  1009.7hPa ESE 7.6mph /  12.2km/h 14mph /  22.5km/h 53.8% 0in /  0.0mm
16:14 92.7 °F /  33.7 °C 73.4 °F /  23 °C 29.8in /  1009.7hPa ESE 8.1mph /  13km/h 16.3mph /  26.2km/h 53.6% 0in /  0.0mm
16:19 92.7 °F /  33.7 °C 73 °F /  22.8 °C 29.8in /  1009.7hPa ESE 8.2mph /  13.2km/h 16.1mph /  25.9km/h 53% 0in /  0.0mm
16:24 92.5 °F /  33.6 °C 73 °F /  22.8 °C 29.8in /  1009.6hPa ESE 8.5mph /  13.7km/h 16mph /  25.7km/h 53.5% 0in /  0.0mm
16:29 92.7 °F /  33.7 °C 72.7 °F /  22.6 °C 29.8in /  1009.6hPa ESE 8.3mph /  13.3km/h 14mph /  22.5km/h 52.3% 0in /  0.0mm
16:34 92.7 °F /  33.7 °C 72 °F /  22.2 °C 29.8in /  1009.6hPa Este 7.4mph /  11.9km/h 12mph /  19.3km/h 51.1% 0in /  0.0mm
16:39 92.8 °F /  33.8 °C 72 °F /  22.2 °C 29.8in /  1009.5hPa ESE 6.6mph /  10.7km/h 11.5mph /  18.5km/h 50.9% 0in /  0.0mm
16:44 92.8 °F /  33.8 °C 72.1 °F /  22.3 °C 29.8in /  1009.5hPa Este 4.3mph /  6.9km/h 12mph /  19.3km/h 51% 0in /  0.0mm
16:49 92.8 °F /  33.8 °C 71.4 °F /  21.9 °C 29.8in /  1009.5hPa Este 4.4mph /  7.1km/h 7.6mph /  12.2km/h 49.8% 0in /  0.0mm
16:54 93 °F /  33.9 °C 71.1 °F /  21.7 °C 29.8in /  1009.4hPa NE 4.7mph /  7.6km/h 15.2mph /  24.5km/h 49.1% 0in /  0.0mm
16:59 93 °F /  33.9 °C 70.5 °F /  21.4 °C 29.8in /  1009.4hPa ENE 5.3mph /  8.6km/h 15mph /  24.1km/h 48.2% 0in /  0.0mm
17:04 93 °F /  33.9 °C 70.9 °F /  21.6 °C 29.8in /  1009.4hPa NE 6.9mph /  11.1km/h 15.2mph /  24.5km/h 48.5% 0in /  0.0mm
17:09 92.7 °F /  33.7 °C 71.1 °F /  21.7 °C 29.8in /  1009.2hPa NE 7.7mph /  12.4km/h 18.4mph /  29.6km/h 49.8% 0in /  0.0mm
17:14 92.1 °F /  33.4 °C 70.3 °F /  21.3 °C 29.8in /  1009.2hPa NE 10.2mph /  16.4km/h 18mph /  29km/h 49.1% 0in /  0.0mm
17:19 92.5 °F /  33.6 °C 71.1 °F /  21.7 °C 29.8in /  1009.2hPa NE 10.2mph /  16.4km/h 17mph /  27.4km/h 49.9% 0in /  0.0mm
17:24 92.3 °F /  33.5 °C 70.9 °F /  21.6 °C 29.8in /  1009.2hPa NE 10.2mph /  16.4km/h 17.3mph /  27.8km/h 50% 0in /  0.0mm
17:29 92.1 °F /  33.4 °C 70.9 °F /  21.6 °C 29.8in /  1009.2hPa NE 10.2mph /  16.4km/h 17.3mph /  27.8km/h 50.2% 0in /  0.0mm
17:34 92.3 °F /  33.5 °C 70.7 °F /  21.5 °C 29.8in /  1009.2hPa NE 10.2mph /  16.4km/h 17mph /  27.4km/h 49.6% 0in /  0.0mm
17:39 92.1 °F /  33.4 °C 70.2 °F /  21.2 °C 29.8in /  1009.1hPa NE 10.1mph /  16.3km/h 17.3mph /  27.8km/h 48.8% 0in /  0.0mm
17:44 92.1 °F /  33.4 °C 70.7 °F /  21.5 °C 29.8in /  1009.1hPa NNE 10mph /  16.1km/h 17.5mph /  28.2km/h 49.7% 0in /  0.0mm
17:49 92.1 °F /  33.4 °C 70.9 °F /  21.6 °C 29.8in /  1009.1hPa NE 10mph /  16.1km/h 17mph /  27.4km/h 50% 0in /  0.0mm
17:54 92.1 °F /  33.4 °C 70.7 °F /  21.5 °C 29.8in /  1009.0hPa NE 10mph /  16.1km/h 17.3mph /  27.8km/h 50% 0in /  0.0mm
17:59 92.1 °F /  33.4 °C 70.7 °F /  21.5 °C 29.8in /  1009.0hPa NE 10mph /  16.1km/h 15.2mph /  24.5km/h 50% 0in /  0.0mm
18:04 92.1 °F /  33.4 °C 70.9 °F /  21.6 °C 29.8in /  1009.0hPa NE 10mph /  16.1km/h 18.4mph /  29.6km/h 50.2% 0in /  0.0mm
18:09 91.9 °F /  33.3 °C 72.1 °F /  22.3 °C 29.8in /  1008.9hPa NE 9.8mph /  15.8km/h 19.6mph /  31.5km/h 52.6% 0in /  0.0mm
18:14 91.2 °F /  32.9 °C 72.7 °F /  22.6 °C 29.8in /  1008.9hPa NE 9.2mph /  14.8km/h 20mph /  32.2km/h 54.6% 0in /  0.0mm
18:19 91 °F /  32.8 °C 72.5 °F /  22.5 °C 29.8in /  1008.9hPa NE 9.7mph /  15.6km/h 18.4mph /  29.6km/h 54.8% 0in /  0.0mm
18:24 90.9 °F /  32.7 °C 72.5 °F /  22.5 °C 29.8in /  1008.7hPa NE 11.2mph /  18km/h 17.3mph /  27.8km/h 55% 0in /  0.0mm
18:29 90.9 °F /  32.7 °C 72.5 °F /  22.5 °C 29.8in /  1008.7hPa NE 11mph /  17.7km/h 19.7mph /  31.7km/h 55% 0in /  0.0mm
18:34 90.9 °F /  32.7 °C 72.3 °F /  22.4 °C 29.8in /  1008.7hPa NE 10.2mph /  16.4km/h 20.7mph /  33.3km/h 55% 0in /  0.0mm
18:39 90.9 °F /  32.7 °C 72.3 °F /  22.4 °C 29.8in /  1008.7hPa NE 10.6mph /  17km/h 21mph /  33.8km/h 55% 0in /  0.0mm
18:44 90.7 °F /  32.6 °C 72.5 °F /  22.5 °C 29.8in /  1008.7hPa NE 11.8mph /  19km/h 16.1mph /  25.9km/h 55.3% 0in /  0.0mm
18:49 90.1 °F /  32.3 °C 72.5 °F /  22.5 °C 29.8in /  1008.7hPa NE 11.6mph /  18.6km/h 19mph /  30.6km/h 56.3% 0in /  0.0mm
18:54 90 °F /  32.2 °C 72.7 °F /  22.6 °C 29.8in /  1008.6hPa NE 10.7mph /  17.2km/h 19mph /  30.6km/h 57% 0in /  0.0mm
18:59 89.8 °F /  32.1 °C 72.5 °F /  22.5 °C 29.8in /  1008.6hPa NE 10.4mph /  16.8km/h 15mph /  24.1km/h 56.9% 0in /  0.0mm
19:04 89.8 °F /  32.1 °C 72.5 °F /  22.5 °C 29.8in /  1008.7hPa NE 9.7mph /  15.6km/h 17.8mph /  28.6km/h 56.8% 0in /  0.0mm
19:09 89.4 °F /  31.9 °C 72.5 °F /  22.5 °C 29.8in /  1008.7hPa NNE 9.8mph /  15.8km/h 18.4mph /  29.6km/h 57.7% 0in /  0.0mm
19:14 89.2 °F /  31.8 °C 72.3 °F /  22.4 °C 29.8in /  1008.7hPa NE 10.2mph /  16.4km/h 18mph /  29km/h 57.3% 0in /  0.0mm
19:19 89.2 °F /  31.8 °C 72.3 °F /  22.4 °C 29.8in /  1008.8hPa NE 10.3mph /  16.6km/h 18.4mph /  29.6km/h 57.4% 0in /  0.0mm
19:24 89.1 °F /  31.7 °C 72.3 °F /  22.4 °C 29.8in /  1008.8hPa NE 10.7mph /  17.2km/h 18mph /  29km/h 57.9% 0in /  0.0mm
19:29 88.9 °F /  31.6 °C 72.1 °F /  22.3 °C 29.8in /  1008.8hPa NE 10.8mph /  17.4km/h 20.7mph /  33.3km/h 58% 0in /  0.0mm
19:34 88.5 °F /  31.4 °C 72 °F /  22.2 °C 29.8in /  1008.8hPa NE 11.2mph /  18km/h 21mph /  33.8km/h 58.3% 0in /  0.0mm
19:39 88.3 °F /  31.3 °C 72.3 °F /  22.4 °C 29.8in /  1008.8hPa NE 11.2mph /  18km/h 17.3mph /  27.8km/h 59.1% 0in /  0.0mm
19:44 88.2 °F /  31.2 °C 72.3 °F /  22.4 °C 29.8in /  1008.8hPa NE 11.2mph /  18km/h 19mph /  30.6km/h 59.6% 0in /  0.0mm
19:49 87.8 °F /  31 °C 72.1 °F /  22.3 °C 29.8in /  1009.0hPa NE 11.2mph /  18.1km/h 19mph /  30.6km/h 60% 0in /  0.0mm
19:54 87.8 °F /  31 °C 72.5 °F /  22.5 °C 29.8in /  1009.0hPa NE 11.4mph /  18.4km/h 16.3mph /  26.2km/h 60.4% 0in /  0.0mm
19:59 87.6 °F /  30.9 °C 72.5 °F /  22.5 °C 29.8in /  1009.0hPa NE 10.9mph /  17.6km/h 16.1mph /  25.9km/h 60.9% 0in /  0.0mm
20:04 87.4 °F /  30.8 °C 72.7 °F /  22.6 °C 29.8in /  1009.2hPa NE 9.7mph /  15.6km/h 14mph /  22.5km/h 61.6% 0in /  0.0mm
20:09 87.4 °F /  30.8 °C 72.9 °F /  22.7 °C 29.8in /  1009.2hPa NE 9.4mph /  15.2km/h 15mph /  24.1km/h 62.2% 0in /  0.0mm
20:14 87.3 °F /  30.7 °C 73.2 °F /  22.9 °C 29.8in /  1009.2hPa NE 8.7mph /  14km/h 15mph /  24.1km/h 63.6% 0in /  0.0mm
20:19 86.7 °F /  30.4 °C 73.4 °F /  23 °C 29.8in /  1009.3hPa NE 8.8mph /  14.2km/h 16.1mph /  25.9km/h 64.4% 0in /  0.0mm
20:24 86.5 °F /  30.3 °C 73.4 °F /  23 °C 29.8in /  1009.3hPa NE 9.2mph /  14.8km/h 16mph /  25.7km/h 65% 0in /  0.0mm
20:29 86.4 °F /  30.2 °C 73.4 °F /  23 °C 29.8in /  1009.3hPa NE 9.4mph /  15.1km/h 16.1mph /  25.9km/h 65.7% 0in /  0.0mm
20:34 86 °F /  30 °C 73.4 °F /  23 °C 29.8in /  1009.4hPa NE 10mph /  16.1km/h 16.1mph /  25.9km/h 66% 0in /  0.0mm
20:39 85.8 °F /  29.9 °C 73.2 °F /  22.9 °C 29.8in /  1009.4hPa NE 9.6mph /  15.5km/h 16mph /  25.7km/h 66% 0in /  0.0mm
20:44 85.8 °F /  29.9 °C 73.2 °F /  22.9 °C 29.8in /  1009.4hPa NE 8.5mph /  13.7km/h 16.1mph /  25.9km/h 66.3% 0in /  0.0mm
20:49 85.5 °F /  29.7 °C 73.2 °F /  22.9 °C 29.8in /  1009.6hPa NE 8.8mph /  14.1km/h 16.1mph /  25.9km/h 67% 0in /  0.0mm
20:54 85.3 °F /  29.6 °C 73 °F /  22.8 °C 29.8in /  1009.6hPa NE 9.7mph /  15.6km/h 14mph /  22.5km/h 66.9% 0in /  0.0mm
20:59 85.3 °F /  29.6 °C 72.7 °F /  22.6 °C 29.8in /  1009.6hPa NE 9.4mph /  15.1km/h 14mph /  22.5km/h 66.3% 0in /  0.0mm
21:04 85.1 °F /  29.5 °C 72.5 °F /  22.5 °C 29.8in /  1009.8hPa NE 8.5mph /  13.7km/h 15mph /  24.1km/h 66% 0in /  0.0mm
21:09 84.9 °F /  29.4 °C 72 °F /  22.2 °C 29.8in /  1009.8hPa NE 8.6mph /  13.9km/h 15mph /  24.1km/h 65.5% 0in /  0.0mm
21:14 84.7 °F /  29.3 °C 71.8 °F /  22.1 °C 29.8in /  1009.8hPa NE 9.2mph /  14.8km/h 14mph /  22.5km/h 65% 0in /  0.0mm
21:19 84.7 °F /  29.3 °C 72 °F /  22.2 °C 29.8in /  1009.9hPa NE 8.9mph /  14.4km/h 13mph /  20.9km/h 65.5% 0in /  0.0mm
21:24 84.6 °F /  29.2 °C 72.1 °F /  22.3 °C 29.8in /  1009.9hPa NE 8.1mph /  13km/h 13.8mph /  22.2km/h 66.3% 0in /  0.0mm
21:29 84.6 °F /  29.2 °C 72.3 °F /  22.4 °C 29.8in /  1009.9hPa NE 8mph /  12.8km/h 14mph /  22.5km/h 67% 0in /  0.0mm
21:34 84.4 °F /  29.1 °C 72.1 °F /  22.3 °C 29.8in /  1010.2hPa NE 7.6mph /  12.2km/h 13.5mph /  21.7km/h 67% 0in /  0.0mm
21:39 84 °F /  28.9 °C 72 °F /  22.2 °C 29.8in /  1010.2hPa NE 7.8mph /  12.6km/h 14mph /  22.5km/h 67% 0in /  0.0mm
21:44 84 °F /  28.9 °C 72.1 °F /  22.3 °C 29.8in /  1010.2hPa NE 8.5mph /  13.7km/h 14mph /  22.5km/h 67.7% 0in /  0.0mm
21:49 84 °F /  28.9 °C 72.3 °F /  22.4 °C 29.8in /  1010.4hPa NE 8.2mph /  13.2km/h 12.7mph /  20.4km/h 68% 0in /  0.0mm
21:54 83.8 °F /  28.8 °C 72.1 °F /  22.3 °C 29.8in /  1010.4hPa NE 7.4mph /  11.9km/h 13mph /  20.9km/h 68.1% 0in /  0.0mm
21:59 83.8 °F /  28.8 °C 72.3 °F /  22.4 °C 29.8in /  1010.4hPa NE 7.3mph /  11.7km/h 13mph /  20.9km/h 68.5% 0in /  0.0mm
22:04 83.8 °F /  28.8 °C 72.5 °F /  22.5 °C 29.8in /  1010.6hPa NE 6.9mph /  11.1km/h 12mph /  19.3km/h 68.8% 0in /  0.0mm
22:09 83.7 °F /  28.7 °C 72.1 °F /  22.3 °C 29.8in /  1010.6hPa NE 6.6mph /  10.7km/h 10mph /  16.1km/h 68.5% 0in /  0.0mm
22:14 83.7 °F /  28.7 °C 72.3 °F /  22.4 °C 29.8in /  1010.6hPa NE 5.9mph /  9.5km/h 10mph /  16.1km/h 69% 0in /  0.0mm
22:19 83.7 °F /  28.7 °C 72.1 °F /  22.3 °C 29.9in /  1010.9hPa NE 5.7mph /  9.2km/h 9.2mph /  14.8km/h 68.3% 0in /  0.0mm
22:24 83.5 °F /  28.6 °C 71.8 °F /  22.1 °C 29.9in /  1010.9hPa NE 5.2mph /  8.4km/h 9.2mph /  14.8km/h 68% 0in /  0.0mm
22:29 83.5 °F /  28.6 °C 71.8 °F /  22.1 °C 29.9in /  1010.9hPa NE 5.2mph /  8.4km/h 9.2mph /  14.8km/h 68% 0in /  0.0mm
22:34 83.1 °F /  28.4 °C 71.6 °F /  22 °C 29.9in /  1011.1hPa NE 5.4mph /  8.7km/h 9.7mph /  15.6km/h 68% 0in /  0.0mm
22:39 83.1 °F /  28.4 °C 71.4 °F /  21.9 °C 29.9in /  1011.1hPa NE 5.3mph /  8.6km/h 10mph /  16.1km/h 67.8% 0in /  0.0mm
22:44 83.1 °F /  28.4 °C 71.1 °F /  21.7 °C 29.9in /  1011.1hPa NE 5.2mph /  8.4km/h 9mph /  14.5km/h 67% 0in /  0.0mm
22:49 83.1 °F /  28.4 °C 70.7 °F /  21.5 °C 29.9in /  1011.2hPa NE 5.2mph /  8.4km/h 9.2mph /  14.8km/h 66.4% 0in /  0.0mm
22:54 83.1 °F /  28.4 °C 70.5 °F /  21.4 °C 29.9in /  1011.2hPa NE 5.2mph /  8.4km/h 9mph /  14.5km/h 66% 0in /  0.0mm
22:59 83.1 °F /  28.4 °C 70.5 °F /  21.4 °C 29.9in /  1011.2hPa NE 5.2mph /  8.4km/h 9mph /  14.5km/h 66% 0in /  0.0mm
23:04 82.9 °F /  28.3 °C 70.3 °F /  21.3 °C 29.9in /  1011.5hPa NE 5.2mph /  8.4km/h 8.1mph /  13km/h 66% 0in /  0.0mm
23:09 82.8 °F /  28.2 °C 70.3 °F /  21.3 °C 29.9in /  1011.5hPa NNE 5.2mph /  8.4km/h 9.2mph /  14.8km/h 66.4% 0in /  0.0mm
23:14 82.4 °F /  28 °C 71.1 °F /  21.7 °C 29.9in /  1011.5hPa NNE 5.4mph /  8.7km/h 9.2mph /  14.8km/h 68.6% 0in /  0.0mm
23:19 82 °F /  27.8 °C 71.2 °F /  21.8 °C 29.9in /  1011.6hPa NE 5.4mph /  8.7km/h 9.7mph /  15.6km/h 69.7% 0in /  0.0mm
23:24 81.9 °F /  27.7 °C 71.1 °F /  21.7 °C 29.9in /  1011.6hPa NE 5.4mph /  8.7km/h 10mph /  16.1km/h 70% 0in /  0.0mm
23:29 81.5 °F /  27.5 °C 71.1 °F /  21.7 °C 29.9in /  1011.6hPa NE 5.4mph /  8.7km/h 8.1mph /  13km/h 70.6% 0in /  0.0mm
23:34 81.3 °F /  27.4 °C 71.1 °F /  21.7 °C 29.9in /  1011.6hPa NE 5.4mph /  8.7km/h 8mph /  12.9km/h 71% 0in /  0.0mm
23:39 81.3 °F /  27.4 °C 71.1 °F /  21.7 °C 29.9in /  1011.5hPa NE 5.2mph /  8.3km/h 7.4mph /  11.9km/h 71% 0in /  0.0mm
23:44 81.1 °F /  27.3 °C 71.2 °F /  21.8 °C 29.9in /  1011.5hPa NE 4.3mph /  6.9km/h 7mph /  11.3km/h 71.9% 0in /  0.0mm
23:49 81.1 °F /  27.3 °C 71.4 °F /  21.9 °C 29.9in /  1011.6hPa NE 4mph /  6.4km/h 7mph /  11.3km/h 72.1% 0in /  0.0mm
23:54 81.1 °F /  27.3 °C 71.8 °F /  22.1 °C 29.9in /  1011.6hPa NE 2.9mph /  4.7km/h 7.4mph /  11.9km/h 73% 0in /  0.0mm
23:59 81 °F /  27.2 °C 71.8 °F /  22.1 °C 29.9in /  1011.6hPa NE 3.3mph /  5.3km/h 7mph /  11.3km/h 73.7% 0in /  0.0mm
Murcia-Puente Tocinos, España
Compliments of Weather Underground - 2.75 mb

La estación de MeteoMurcia.com, publica sus datos en los siguientes proyectos:

Weather Underground PWS IMURCIAP2 Meteoclimatic www.awekas.at

W3Counter
Web Analytics